createdAt,value
2022-11-16T00:03:36.414Z,10.95
2022-11-16T00:08:45.341Z,9.37
2022-11-16T00:13:48.649Z,8.32
2022-11-16T00:18:58.352Z,9.16
2022-11-16T00:24:03.099Z,12.36
2022-11-16T00:29:06.771Z,13.93
2022-11-16T00:34:10.186Z,13.69
2022-11-16T00:39:15.981Z,11.11
2022-11-16T00:44:19.385Z,9.45
2022-11-16T00:49:22.671Z,9.78
2022-11-16T00:54:26.098Z,12.66
2022-11-16T00:59:29.396Z,13.95
2022-11-16T01:04:32.709Z,14.58
2022-11-16T01:09:36.051Z,13.84
2022-11-16T01:14:46.814Z,11.11
2022-11-16T01:19:50.323Z,9.34
2022-11-16T01:24:53.534Z,9.71
2022-11-16T01:29:57.043Z,12.70
2022-11-16T01:35:00.258Z,14.02
2022-11-16T01:40:04.698Z,13.45
2022-11-16T01:45:30.544Z,10.76
2022-11-16T01:50:35.082Z,10.63
2022-11-16T01:55:40.701Z,13.16
2022-11-16T02:00:44.143Z,13.26
2022-11-16T02:06:28.216Z,10.66
2022-11-16T02:11:50.989Z,8.79
2022-11-16T02:17:12.633Z,9.61
2022-11-16T02:22:38.766Z,12.60
2022-11-16T02:27:47.717Z,13.89
2022-11-16T02:32:59.878Z,13.28
2022-11-16T02:38:14.435Z,10.51
2022-11-16T02:43:26.624Z,8.82
2022-11-16T02:48:42.119Z,9.45
2022-11-16T02:54:23.795Z,12.42
2022-11-16T02:59:31.743Z,12.15
2022-11-16T03:05:05.160Z,9.73
2022-11-16T03:10:10.356Z,9.96
2022-11-16T03:15:14.042Z,12.46
2022-11-16T03:20:27.176Z,12.44
2022-11-16T03:25:38.474Z,9.90
2022-11-16T03:30:52.904Z,8.27
2022-11-16T03:36:10.407Z,8.85
2022-11-16T03:41:15.525Z,12.01
2022-11-16T03:46:21.621Z,13.27
2022-11-16T03:51:25.856Z,12.03
2022-11-16T03:56:29.061Z,9.60
2022-11-16T04:01:32.370Z,8.08
2022-11-16T04:06:54.283Z,8.67
2022-11-16T04:12:15.968Z,11.84
2022-11-16T04:17:39.245Z,11.77
2022-11-16T04:23:22.288Z,9.21
2022-11-16T04:28:32.252Z,7.82
2022-11-16T04:33:54.941Z,10.34
2022-11-16T04:38:58.225Z,12.22
2022-11-16T04:44:01.544Z,10.54
2022-11-16T04:49:04.856Z,8.35
2022-11-16T04:54:08.088Z,7.08
2022-11-16T04:59:11.571Z,6.29
2022-11-16T05:04:14.688Z,7.40
2022-11-16T05:09:17.992Z,10.57
2022-11-16T05:14:21.101Z,10.90
2022-11-16T05:19:42.946Z,8.47
2022-11-16T05:24:46.084Z,6.91
2022-11-16T05:29:49.990Z,8.71
2022-11-16T05:34:53.384Z,11.21
2022-11-16T05:39:57.224Z,11.16
2022-11-16T05:45:00.552Z,8.68
2022-11-16T05:50:04.297Z,7.14
2022-11-16T05:55:08.601Z,6.15
2022-11-16T06:00:13.135Z,6.88
2022-11-16T06:05:16.336Z,10.08
2022-11-16T06:10:19.638Z,11.46
2022-11-16T06:15:23.049Z,11.19
2022-11-16T06:20:27.590Z,8.56
2022-11-16T06:25:33.566Z,6.83
2022-11-16T06:30:40.346Z,5.84
2022-11-16T06:35:44.178Z,6.91
2022-11-16T06:40:56.125Z,10.24
2022-11-16T06:45:59.311Z,10.51
2022-11-16T06:51:02.561Z,7.79
2022-11-16T06:56:06.843Z,6.47
2022-11-16T07:01:12.673Z,8.98
2022-11-16T07:06:16.226Z,11.00
2022-11-16T07:11:20.496Z,10.15
2022-11-16T07:16:23.874Z,7.41
2022-11-16T07:21:26.985Z,7.27
2022-11-16T07:26:33.209Z,10.06
2022-11-16T07:31:36.368Z,10.28
2022-11-16T07:36:39.794Z,7.67
2022-11-16T07:41:44.530Z,6.02
2022-11-16T07:46:48.601Z,6.73
2022-11-16T07:51:52.071Z,9.81
2022-11-16T07:56:55.182Z,10.39
2022-11-16T08:01:59.466Z,7.92
2022-11-16T08:07:02.891Z,6.23
2022-11-16T08:12:06.478Z,7.42
2022-11-16T08:17:09.853Z,10.16
2022-11-16T08:22:13.284Z,9.47
2022-11-16T08:27:17.817Z,7.01
2022-11-16T08:32:21.015Z,5.65
2022-11-16T08:37:26.382Z,6.36
2022-11-16T08:42:29.485Z,9.31
2022-11-16T08:47:33.229Z,9.20
2022-11-16T08:52:36.422Z,6.91
2022-11-16T08:57:41.132Z,5.57
2022-11-16T09:02:44.162Z,6.11
2022-11-16T09:07:47.466Z,9.22
2022-11-16T09:12:50.578Z,9.39
2022-11-16T09:17:55.143Z,6.95
2022-11-16T09:22:58.226Z,5.42
2022-11-16T09:28:01.551Z,6.15
2022-11-16T09:33:04.634Z,9.40
2022-11-16T09:38:10.068Z,9.03
2022-11-16T09:43:45.623Z,6.57
2022-11-16T09:48:51.348Z,5.09
2022-11-16T09:54:08.876Z,6.48
2022-11-16T09:59:25.821Z,9.63
2022-11-16T10:04:58.272Z,9.56
2022-11-16T10:10:02.331Z,6.84
2022-11-16T10:15:33.902Z,5.47
2022-11-16T10:21:03.749Z,6.52
2022-11-16T10:26:37.674Z,9.77
2022-11-16T10:32:28.320Z,8.27
2022-11-16T10:37:36.792Z,5.82
2022-11-16T10:42:39.927Z,4.91
2022-11-16T10:48:02.179Z,7.52
2022-11-16T10:53:05.809Z,9.85
2022-11-16T10:58:09.046Z,8.16
2022-11-16T11:03:13.175Z,6.06
2022-11-16T11:08:31.909Z,4.93
2022-11-16T11:13:35.363Z,4.85
2022-11-16T11:18:38.945Z,8.17
2022-11-16T11:23:52.151Z,9.13
2022-11-16T11:28:56.414Z,6.69
2022-11-16T11:34:18.260Z,5.09
2022-11-16T11:39:21.361Z,5.99
2022-11-16T11:44:38.130Z,9.32
2022-11-16T11:49:52.432Z,9.39
2022-11-16T11:54:56.814Z,6.96
2022-11-16T12:00:02.869Z,5.59
2022-11-16T12:05:50.834Z,4.61
2022-11-16T12:11:13.191Z,4.86
2022-11-16T12:16:53.062Z,8.65
2022-11-16T12:22:26.271Z,9.04
2022-11-16T12:28:10.262Z,6.15
2022-11-16T12:33:37.343Z,4.61
2022-11-16T12:38:49.747Z,5.08
2022-11-16T12:44:14.544Z,8.57
2022-11-16T12:49:28.815Z,9.05
2022-11-16T12:55:29.827Z,6.69
2022-11-16T13:00:56.058Z,5.03
2022-11-16T13:06:25.633Z,4.19
2022-11-16T13:11:47.799Z,5.28
2022-11-16T13:16:53.161Z,8.46
2022-11-16T13:22:07.535Z,6.94
2022-11-16T13:27:53.119Z,5.25
2022-11-16T13:33:05.385Z,4.24
2022-11-16T13:38:15.553Z,3.73
2022-11-16T13:43:20.059Z,6.18
2022-11-16T13:48:36.476Z,9.30
2022-11-16T13:59:23.041Z,6.65
2022-11-16T14:04:41.935Z,5.19
2022-11-16T14:09:49.631Z,5.04
2022-11-16T14:15:33.185Z,8.20
2022-11-16T14:21:33.225Z,7.58
2022-11-16T14:27:17.099Z,5.47
2022-11-16T14:32:36.999Z,4.49
2022-11-16T14:37:44.698Z,7.21
2022-11-16T14:43:15.367Z,9.05
2022-11-16T14:48:22.628Z,6.92
2022-11-16T14:53:28.381Z,5.31
2022-11-16T14:58:32.244Z,4.44
2022-11-16T15:03:45.974Z,3.89
2022-11-16T15:08:59.763Z,3.49
2022-11-16T15:14:03.100Z,4.87
2022-11-16T15:19:12.754Z,8.36
2022-11-16T15:24:31.851Z,8.59
2022-11-16T15:29:36.455Z,6.09
2022-11-16T15:34:40.177Z,4.79
2022-11-16T15:39:43.999Z,4.08
2022-11-16T15:44:47.348Z,3.64
2022-11-16T15:49:53.227Z,4.15
2022-11-16T15:55:04.996Z,7.68
2022-11-16T16:00:23.513Z,8.40
2022-11-16T16:05:35.061Z,6.11
2022-11-16T16:10:38.207Z,4.80
2022-11-16T16:15:41.786Z,4.05
2022-11-16T16:20:49.092Z,3.57
2022-11-16T16:25:52.198Z,4.80
2022-11-16T16:30:55.323Z,8.05
2022-11-16T16:35:59.327Z,8.82
2022-11-16T16:41:05.148Z,6.60
2022-11-16T16:46:13.294Z,5.11
2022-11-16T16:51:16.430Z,4.19
2022-11-16T16:56:20.359Z,3.62
2022-11-16T17:01:23.515Z,4.58
2022-11-16T17:06:26.876Z,8.35
2022-11-16T17:11:30.085Z,10.18
2022-11-16T17:16:33.291Z,9.68
2022-11-16T17:21:36.510Z,6.85
2022-11-16T17:26:41.361Z,5.13
2022-11-16T17:31:48.060Z,4.12
2022-11-16T17:36:51.358Z,3.66
2022-11-16T17:41:54.983Z,6.41
2022-11-16T17:46:58.180Z,9.26
2022-11-16T17:52:02.035Z,9.26
2022-11-16T17:57:05.459Z,6.73
2022-11-16T18:02:11.922Z,5.04
2022-11-16T18:07:15.293Z,4.02
2022-11-16T18:12:18.930Z,4.98
2022-11-16T18:17:22.139Z,8.47
2022-11-16T18:22:25.458Z,8.13
2022-11-16T18:27:28.987Z,5.70
2022-11-16T18:32:33.827Z,4.39
2022-11-16T18:37:37.225Z,3.68
2022-11-16T18:42:41.816Z,3.25
2022-11-16T18:47:46.309Z,5.55
2022-11-16T18:52:49.633Z,8.91
2022-11-16T18:57:52.721Z,9.17
2022-11-16T19:02:55.851Z,6.57
2022-11-16T19:07:59.046Z,4.95
2022-11-16T19:13:02.362Z,4.02
2022-11-16T19:18:20.999Z,3.45
2022-11-16T19:23:25.230Z,3.15
2022-11-16T19:28:28.367Z,6.19
2022-11-16T19:33:31.767Z,8.97
2022-11-16T19:38:35.596Z,7.42
2022-11-16T19:43:39.528Z,5.40
2022-11-16T19:48:45.856Z,4.19
2022-11-16T19:53:49.223Z,3.54
2022-11-16T19:58:53.033Z,3.18
2022-11-16T20:04:02.521Z,3.19
2022-11-16T20:09:09.984Z,6.70
2022-11-16T20:14:14.216Z,9.26
2022-11-16T20:19:19.137Z,8.67
2022-11-16T20:24:22.497Z,6.28
2022-11-16T20:29:25.705Z,4.91
2022-11-16T20:34:29.021Z,4.10
2022-11-16T20:39:32.222Z,3.60
2022-11-16T20:44:35.427Z,3.22
2022-11-16T20:49:38.742Z,2.95
2022-11-16T20:54:41.966Z,4.09
2022-11-16T20:59:45.164Z,7.65
2022-11-16T21:04:48.464Z,8.56
2022-11-16T21:10:10.224Z,6.24
2022-11-16T21:15:13.527Z,4.77
2022-11-16T21:20:32.781Z,4.00
2022-11-16T21:25:36.434Z,3.42
2022-11-16T21:30:39.840Z,4.47
2022-11-16T21:35:42.945Z,7.86
2022-11-16T21:40:46.872Z,8.55
2022-11-16T21:45:51.269Z,6.26
2022-11-16T21:51:04.123Z,4.77
2022-11-16T21:56:12.860Z,3.89
2022-11-16T22:01:16.431Z,3.36
2022-11-16T22:06:38.375Z,3.01
2022-11-16T22:17:21.335Z,8.55
2022-11-16T22:22:28.022Z,9.94
2022-11-16T22:27:31.529Z,7.85
2022-11-16T22:32:34.837Z,5.76
2022-11-16T22:37:38.156Z,4.52
2022-11-16T22:42:41.490Z,3.71
2022-11-16T22:47:44.792Z,3.37
2022-11-16T22:52:48.292Z,6.50
2022-11-16T22:57:52.330Z,9.04
2022-11-16T23:02:55.684Z,8.10
2022-11-16T23:07:59.249Z,5.80
2022-11-16T23:13:21.410Z,4.43
2022-11-16T23:18:24.672Z,3.53
2022-11-16T23:23:46.456Z,3.08
2022-11-16T23:28:49.968Z,2.76
2022-11-16T23:33:53.182Z,2.56
2022-11-16T23:38:56.486Z,3.92
2022-11-16T23:43:59.806Z,7.62
2022-11-16T23:49:03.221Z,8.13
2022-11-16T23:54:07.761Z,5.89
2022-11-16T23:59:11.064Z,4.58
